createdAt,value
2017-05-07T00:01:24.242Z,100356.58
2017-05-07T00:03:51.041Z,100351.89
2017-05-07T00:06:17.379Z,100353.59
2017-05-07T00:08:43.748Z,100358.53
2017-05-07T00:11:10.128Z,100358.73
2017-05-07T00:13:36.469Z,100363.48
2017-05-07T00:16:02.840Z,100362.68
2017-05-07T00:18:29.201Z,100349.42
2017-05-07T00:20:55.745Z,100362.22
2017-05-07T00:23:22.121Z,100365.72
2017-05-07T00:25:48.446Z,100365.44
2017-05-07T00:28:14.801Z,100361.61
2017-05-07T00:30:41.318Z,100359.17
2017-05-07T00:33:07.660Z,100360.47
2017-05-07T00:35:33.991Z,100369.78
2017-05-07T00:38:00.333Z,100358.34
2017-05-07T00:40:26.808Z,100373.94
2017-05-07T00:42:53.167Z,100368.99
2017-05-07T00:45:19.508Z,100372.99
2017-05-07T00:47:45.893Z,100374.52
2017-05-07T00:50:12.313Z,100374.52
2017-05-07T00:52:38.656Z,100373.43
2017-05-07T00:55:04.982Z,100378.12
2017-05-07T00:57:31.340Z,100383.05
2017-05-07T00:59:57.700Z,100390.52
2017-05-07T01:02:24.084Z,100388.36
2017-05-07T01:04:50.422Z,100381.35
2017-05-07T01:07:16.968Z,100386.79
2017-05-07T01:09:43.304Z,100386.16
2017-05-07T01:12:09.682Z,100396.89
2017-05-07T01:14:36.030Z,100385.77
2017-05-07T01:17:02.362Z,100392.61
2017-05-07T01:19:28.714Z,100390.95
2017-05-07T01:21:55.032Z,100396.74
2017-05-07T01:24:21.356Z,100394.47
2017-05-07T01:26:47.816Z,100400.05
2017-05-07T01:29:14.146Z,100398.45
2017-05-07T01:31:40.478Z,100391.31
2017-05-07T01:34:06.827Z,100399.22
2017-05-07T01:36:33.235Z,100401.22
2017-05-07T01:38:59.563Z,100398.21
2017-05-07T01:41:25.921Z,100400.92
2017-05-07T01:43:52.237Z,100400.01
2017-05-07T01:46:18.551Z,100399.81
2017-05-07T01:48:44.893Z,100408.19
2017-05-07T01:51:11.214Z,100406.84
2017-05-07T01:53:37.583Z,100411.33
2017-05-07T01:56:03.914Z,100412.64
2017-05-07T01:58:30.248Z,100410.67
2017-05-07T02:00:56.585Z,100411.96
2017-05-07T02:03:22.898Z,100413.98
2017-05-07T02:05:49.230Z,100409.53
2017-05-07T02:08:15.583Z,100414.14
2017-05-07T02:10:41.913Z,100411.89
2017-05-07T02:13:08.237Z,100409.25
2017-05-07T02:15:34.566Z,100411.67
2017-05-07T02:18:00.900Z,100411.16
2017-05-07T02:20:27.217Z,100405.20
2017-05-07T02:22:53.560Z,100410.05
2017-05-07T02:25:19.886Z,100415.00
2017-05-07T02:27:46.251Z,100409.49
2017-05-07T02:30:12.636Z,100407.13
2017-05-07T02:32:39.052Z,100413.84
2017-05-07T02:35:05.384Z,100418.14
2017-05-07T02:37:31.733Z,100419.21
2017-05-07T02:39:58.540Z,100423.23
2017-05-07T02:42:24.899Z,100421.20
2017-05-07T02:44:51.253Z,100422.48
2017-05-07T02:47:17.607Z,100418.39
2017-05-07T02:49:44.317Z,100420.71
2017-05-07T02:52:10.646Z,100414.78
2017-05-07T02:54:36.980Z,100418.73
2017-05-07T02:57:03.328Z,100417.13
2017-05-07T02:59:29.746Z,100418.70
2017-05-07T03:01:56.081Z,100427.69
2017-05-07T03:04:22.441Z,100420.41
2017-05-07T03:06:48.815Z,100426.78
2017-05-07T03:09:15.217Z,100422.80
2017-05-07T03:11:41.546Z,100419.47
2017-05-07T03:14:07.876Z,100426.56
2017-05-07T03:16:34.316Z,100424.55
2017-05-07T03:19:00.629Z,100437.00
2017-05-07T03:21:26.962Z,100430.61
2017-05-07T03:23:53.274Z,100434.10
2017-05-07T03:26:19.591Z,100432.30
2017-05-07T03:28:45.928Z,100431.69
2017-05-07T03:31:12.277Z,100432.45
2017-05-07T03:33:38.599Z,100430.98
2017-05-07T03:36:04.949Z,100433.95
2017-05-07T03:38:31.275Z,100430.99
2017-05-07T03:40:57.652Z,100434.36
2017-05-07T03:43:23.982Z,100432.61
2017-05-07T03:45:50.348Z,100431.61
2017-05-07T03:48:16.700Z,100426.64
2017-05-07T03:50:43.976Z,100433.20
2017-05-07T03:53:10.346Z,100434.11
2017-05-07T03:55:36.694Z,100436.27
2017-05-07T03:58:03.078Z,100437.04
2017-05-07T04:00:29.395Z,100433.83
2017-05-07T04:02:55.734Z,100428.52
2017-05-07T04:05:22.081Z,100432.50
2017-05-07T04:07:48.409Z,100436.50
2017-05-07T04:10:14.741Z,100435.28
2017-05-07T04:12:41.200Z,100436.15
2017-05-07T04:15:07.585Z,100433.13
2017-05-07T04:17:33.927Z,100441.11
2017-05-07T04:20:00.249Z,100443.06
2017-05-07T04:22:26.685Z,100453.50
2017-05-07T04:24:53.035Z,100451.11
2017-05-07T04:27:19.385Z,100454.82
2017-05-07T04:29:45.732Z,100460.06
2017-05-07T04:32:12.126Z,100458.66
2017-05-07T04:34:38.462Z,100459.26
2017-05-07T04:37:04.799Z,100459.89
2017-05-07T04:39:31.128Z,100463.13
2017-05-07T04:41:57.461Z,100464.25
2017-05-07T04:44:23.803Z,100461.94
2017-05-07T04:46:50.181Z,100466.40
2017-05-07T04:49:16.512Z,100468.98
2017-05-07T04:51:42.848Z,100478.27
2017-05-07T04:54:09.172Z,100475.99
2017-05-07T04:56:35.508Z,100481.88
2017-05-07T04:59:01.830Z,100483.54
2017-05-07T05:01:28.347Z,100486.66
2017-05-07T05:03:54.673Z,100485.70
2017-05-07T05:06:21.022Z,100493.58
2017-05-07T05:08:47.382Z,100490.80
2017-05-07T05:11:13.728Z,100492.05
2017-05-07T05:13:40.054Z,100497.77
2017-05-07T05:16:06.452Z,100503.25
2017-05-07T05:18:32.820Z,100505.70
2017-05-07T05:21:06.171Z,100511.55
2017-05-07T05:27:00.129Z,100513.38
2017-05-07T05:32:32.251Z,100517.75
2017-05-07T05:34:58.605Z,100521.14
2017-05-07T05:37:25.167Z,100520.10
2017-05-07T05:39:51.546Z,100519.46
2017-05-07T05:42:17.882Z,100523.59
2017-05-07T05:44:44.222Z,100529.46
2017-05-07T05:47:10.718Z,100529.38
2017-05-07T05:49:37.022Z,100523.43
2017-05-07T05:52:03.333Z,100530.26
2017-05-07T05:54:29.681Z,100523.80
2017-05-07T05:56:56.178Z,100528.87
2017-05-07T05:59:22.513Z,100523.15
2017-05-07T06:01:48.861Z,100523.50
2017-05-07T06:04:15.196Z,100529.80
2017-05-07T06:06:41.551Z,100530.06
2017-05-07T06:09:07.896Z,100538.51
2017-05-07T06:11:34.234Z,100540.28
2017-05-07T06:14:00.602Z,100552.18
2017-05-07T06:16:26.922Z,100553.13
2017-05-07T06:18:53.299Z,100552.74
2017-05-07T06:21:19.622Z,100558.23
2017-05-07T06:23:45.957Z,100558.15
2017-05-07T06:26:12.290Z,100559.20
2017-05-07T06:28:38.640Z,100568.03
2017-05-07T06:31:04.978Z,100567.05
2017-05-07T06:33:31.300Z,100569.83
2017-05-07T06:35:57.627Z,100570.42
2017-05-07T06:38:24.148Z,100565.52
2017-05-07T06:40:50.487Z,100573.56
2017-05-07T06:43:16.835Z,100570.81
2017-05-07T06:45:43.165Z,100575.69
2017-05-07T06:48:09.635Z,100579.55
2017-05-07T06:50:35.965Z,100589.54
2017-05-07T06:53:02.293Z,100585.28
2017-05-07T06:55:30.190Z,100585.91
2017-05-07T06:57:57.210Z,100591.88
2017-05-07T07:00:23.638Z,100596.78
2017-05-07T07:02:49.988Z,100601.05
2017-05-07T07:05:16.380Z,100601.11
2017-05-07T07:07:42.754Z,100596.80
2017-05-07T07:10:09.074Z,100600.14
2017-05-07T07:12:35.398Z,100610.16
2017-05-07T07:15:01.825Z,100613.44
2017-05-07T07:17:28.139Z,100615.78
2017-05-07T07:19:54.513Z,100615.63
2017-05-07T07:22:20.850Z,100615.10
2017-05-07T07:24:47.166Z,100613.39
2017-05-07T07:27:13.504Z,100619.27
2017-05-07T07:29:39.872Z,100615.89
2017-05-07T07:32:06.288Z,100620.30
2017-05-07T07:34:32.621Z,100624.19
2017-05-07T07:36:58.994Z,100630.97
2017-05-07T07:39:25.363Z,100632.11
2017-05-07T07:41:51.698Z,100635.31
2017-05-07T07:44:18.073Z,100641.77
2017-05-07T07:46:44.431Z,100640.58
2017-05-07T07:49:10.889Z,100638.98
2017-05-07T07:51:37.256Z,100646.56
2017-05-07T07:54:03.581Z,100651.66
2017-05-07T07:56:29.949Z,100653.52
2017-05-07T07:58:56.355Z,100665.07
2017-05-07T08:01:22.683Z,100656.75
2017-05-07T08:03:49.047Z,100660.89
2017-05-07T08:06:15.390Z,100659.45
2017-05-07T08:08:41.726Z,100660.63
2017-05-07T08:11:08.042Z,100659.25
2017-05-07T08:13:34.362Z,100661.13
2017-05-07T08:16:00.691Z,100660.52
2017-05-07T08:18:27.026Z,100657.87
2017-05-07T08:20:53.368Z,100662.05
2017-05-07T08:23:19.665Z,100657.52
2017-05-07T08:25:45.993Z,100660.27
2017-05-07T08:28:12.310Z,100664.03
2017-05-07T08:30:38.609Z,100667.77
2017-05-07T08:33:04.954Z,100670.41
2017-05-07T08:35:31.292Z,100671.92
2017-05-07T08:37:57.656Z,100678.31
2017-05-07T08:40:23.990Z,100678.40
2017-05-07T08:42:50.312Z,100687.55
2017-05-07T08:45:16.650Z,100682.03
2017-05-07T08:47:42.965Z,100684.80
2017-05-07T08:50:09.303Z,100683.73
2017-05-07T08:52:35.641Z,100684.52
2017-05-07T08:55:01.976Z,100688.30
2017-05-07T08:57:28.305Z,100687.50
2017-05-07T08:59:54.609Z,100692.13
2017-05-07T09:02:20.921Z,100691.12
2017-05-07T09:04:47.346Z,100688.67
2017-05-07T09:07:13.678Z,100692.04
2017-05-07T09:09:40.078Z,100697.88
2017-05-07T09:12:24.210Z,100699.44
2017-05-07T09:15:06.317Z,100700.34
2017-05-07T09:17:33.418Z,100698.58
2017-05-07T09:19:59.749Z,100697.02
2017-05-07T09:22:26.058Z,100697.14
2017-05-07T09:24:52.454Z,100701.40
2017-05-07T09:27:18.917Z,100699.05
2017-05-07T09:29:45.258Z,100699.45
2017-05-07T09:32:12.646Z,100701.57
2017-05-07T09:34:39.117Z,100700.06
2017-05-07T09:37:05.504Z,100707.56
2017-05-07T09:39:31.850Z,100701.42
2017-05-07T09:41:58.182Z,100709.03
2017-05-07T09:44:24.513Z,100710.41
2017-05-07T09:46:50.890Z,100712.34
2017-05-07T09:49:17.213Z,100714.55
2017-05-07T09:51:43.536Z,100717.70
2017-05-07T09:54:09.896Z,100709.21
2017-05-07T09:56:36.212Z,100716.34
2017-05-07T09:59:02.533Z,100713.74
2017-05-07T10:01:28.853Z,100711.59
2017-05-07T10:03:55.167Z,100717.49
2017-05-07T10:06:21.498Z,100710.60
2017-05-07T10:08:47.843Z,100716.70
2017-05-07T10:11:14.145Z,100713.91
2017-05-07T10:13:40.480Z,100713.06
2017-05-07T10:16:06.820Z,100716.51
2017-05-07T10:18:33.149Z,100726.05
2017-05-07T10:20:59.459Z,100717.46
2017-05-07T10:23:26.051Z,100725.94
2017-05-07T10:25:56.485Z,100720.77
2017-05-07T10:28:28.491Z,100720.39
2017-05-07T10:30:55.912Z,100719.20
2017-05-07T10:33:23.629Z,100721.37
2017-05-07T10:35:53.487Z,100713.55
2017-05-07T10:38:20.222Z,100712.81
2017-05-07T10:40:46.948Z,100718.30
2017-05-07T10:43:13.582Z,100716.86
2017-05-07T10:45:45.047Z,100719.93
2017-05-07T10:48:11.619Z,100720.19
2017-05-07T10:50:38.007Z,100725.63
2017-05-07T10:53:10.516Z,100720.62
2017-05-07T10:55:37.176Z,100721.70
2017-05-07T10:58:03.474Z,100721.59
2017-05-07T11:00:35.176Z,100716.53
2017-05-07T11:03:02.191Z,100720.70
2017-05-07T11:05:28.860Z,100719.74
2017-05-07T11:07:55.336Z,100724.91
2017-05-07T11:10:27.486Z,100726.36
2017-05-07T11:12:54.231Z,100730.42
2017-05-07T11:15:26.848Z,100727.45
2017-05-07T11:17:53.245Z,100727.26
2017-05-07T11:20:25.150Z,100736.72
2017-05-07T11:22:56.964Z,100730.55
2017-05-07T11:25:28.536Z,100721.04
2017-05-07T11:27:58.058Z,100725.45
2017-05-07T11:30:24.404Z,100722.06
2017-05-07T11:32:52.394Z,100721.63
2017-05-07T11:35:18.711Z,100722.73
2017-05-07T11:37:48.574Z,100728.44
2017-05-07T11:40:14.909Z,100724.16
2017-05-07T11:42:48.394Z,100723.84
2017-05-07T11:45:15.675Z,100728.77
2017-05-07T11:47:47.425Z,100730.94
2017-05-07T11:50:13.847Z,100737.22
2017-05-07T11:52:40.154Z,100733.62
2017-05-07T11:55:06.625Z,100741.15
2017-05-07T11:57:33.382Z,100732.93
2017-05-07T11:59:59.943Z,100736.50
2017-05-07T12:02:27.232Z,100734.11
2017-05-07T12:04:54.669Z,100734.16
2017-05-07T12:07:26.468Z,100733.31
2017-05-07T12:09:52.987Z,100730.73
2017-05-07T12:12:19.403Z,100733.37
2017-05-07T12:14:48.876Z,100726.38
2017-05-07T12:17:15.748Z,100729.11
2017-05-07T12:19:42.934Z,100731.03
2017-05-07T12:22:09.419Z,100731.13
2017-05-07T12:24:35.892Z,100730.91
2017-05-07T12:27:02.220Z,100732.84
2017-05-07T12:29:28.855Z,100730.95
2017-05-07T12:32:00.607Z,100730.69
2017-05-07T12:34:27.122Z,100732.77
2017-05-07T12:36:58.849Z,100727.25
2017-05-07T12:39:26.386Z,100732.56
2017-05-07T12:41:52.714Z,100735.31
2017-05-07T12:44:20.010Z,100735.80
2017-05-07T12:46:47.622Z,100729.08
2017-05-07T12:49:13.964Z,100733.73
2017-05-07T12:51:40.789Z,100728.64
2017-05-07T12:54:07.246Z,100732.83
2017-05-07T12:56:35.293Z,100733.42
2017-05-07T12:59:07.226Z,100731.39
2017-05-07T13:01:33.836Z,100724.58
2017-05-07T13:04:01.515Z,100720.68
2017-05-07T13:06:33.150Z,100717.45
2017-05-07T13:09:00.119Z,100717.16
2017-05-07T13:11:30.675Z,100713.72
2017-05-07T13:14:00.233Z,100719.81
2017-05-07T13:16:26.585Z,100720.60
2017-05-07T13:18:53.187Z,100718.83
2017-05-07T13:21:25.666Z,100715.39
2017-05-07T13:23:52.134Z,100716.41
2017-05-07T13:26:34.041Z,100713.52
2017-05-07T13:29:05.764Z,100717.97
2017-05-07T13:31:33.100Z,100718.00
2017-05-07T13:33:59.940Z,100722.98
2017-05-07T13:36:31.816Z,100713.89
2017-05-07T13:39:05.724Z,100715.22
2017-05-07T13:41:32.149Z,100712.88
2017-05-07T13:44:04.741Z,100714.95
2017-05-07T13:46:31.841Z,100711.59
2017-05-07T13:49:03.521Z,100697.77
2017-05-07T13:51:29.959Z,100703.79
2017-05-07T13:54:01.723Z,100705.63
2017-05-07T13:56:30.275Z,100709.23
2017-05-07T13:58:57.760Z,100708.34
2017-05-07T14:01:29.500Z,100703.09
2017-05-07T14:03:55.910Z,100705.45
2017-05-07T14:06:22.612Z,100706.64
2017-05-07T14:08:54.262Z,100707.87
2017-05-07T14:11:21.014Z,100715.04
2017-05-07T14:13:47.522Z,100709.62
2017-05-07T14:16:14.968Z,100719.87
2017-05-07T14:18:46.425Z,100722.88
2017-05-07T14:21:12.886Z,100727.02
2017-05-07T14:23:39.417Z,100723.33
2017-05-07T14:26:06.082Z,100726.13
2017-05-07T14:28:35.772Z,100729.56
2017-05-07T14:31:02.544Z,100725.80
2017-05-07T14:33:29.105Z,100726.71
2017-05-07T14:35:55.486Z,100728.84
2017-05-07T14:38:21.847Z,100731.33
2017-05-07T14:40:48.170Z,100739.97
2017-05-07T14:43:14.511Z,100738.95
2017-05-07T14:45:40.901Z,100736.77
2017-05-07T14:48:07.258Z,100736.75
2017-05-07T14:50:33.741Z,100738.91
2017-05-07T14:53:00.101Z,100738.30
2017-05-07T14:55:26.440Z,100749.11
2017-05-07T14:57:52.786Z,100752.19
2017-05-07T15:00:19.174Z,100746.23
2017-05-07T15:02:45.515Z,100752.41
2017-05-07T15:05:11.859Z,100751.71
2017-05-07T15:07:38.190Z,100752.20
2017-05-07T15:10:04.659Z,100748.67
2017-05-07T15:12:31.022Z,100756.28
2017-05-07T15:14:57.393Z,100752.11
2017-05-07T15:17:23.740Z,100749.86
2017-05-07T15:19:50.158Z,100756.33
2017-05-07T15:22:16.520Z,100755.11
2017-05-07T15:24:42.842Z,100756.63
2017-05-07T15:27:09.175Z,100758.70
2017-05-07T15:29:35.545Z,100760.42
2017-05-07T15:32:01.913Z,100757.02
2017-05-07T15:34:28.789Z,100763.03
2017-05-07T15:36:55.185Z,100767.25
2017-05-07T15:39:21.531Z,100769.49
2017-05-07T15:41:47.860Z,100761.22
2017-05-07T15:44:14.185Z,100763.89
2017-05-07T15:46:40.668Z,100768.56
2017-05-07T15:49:07.021Z,100769.09
2017-05-07T15:51:33.358Z,100767.89
2017-05-07T15:53:59.720Z,100758.89
2017-05-07T15:56:26.077Z,100760.09
2017-05-07T15:58:52.423Z,100765.34
2017-05-07T16:01:18.750Z,100765.64
2017-05-07T16:03:45.088Z,100766.48
2017-05-07T16:06:11.428Z,100769.28
2017-05-07T16:08:37.812Z,100756.67
2017-05-07T16:11:04.154Z,100764.47
2017-05-07T16:13:30.476Z,100764.23
2017-05-07T16:16:03.977Z,100768.23
2017-05-07T16:18:45.483Z,100765.34
2017-05-07T16:24:47.494Z,100770.86
2017-05-07T16:27:20.650Z,100768.25
2017-05-07T16:30:01.941Z,100763.15
2017-05-07T16:32:28.296Z,100761.89
2017-05-07T16:34:54.670Z,100761.50
2017-05-07T16:37:21.052Z,100762.63
2017-05-07T16:39:47.430Z,100764.14
2017-05-07T16:42:26.264Z,100765.52
2017-05-07T16:44:52.782Z,100770.88
2017-05-07T16:47:19.128Z,100771.05
2017-05-07T16:49:45.513Z,100771.22
2017-05-07T16:52:11.884Z,100761.95
2017-05-07T16:54:38.267Z,100764.74
2017-05-07T16:57:04.641Z,100769.75
2017-05-07T16:59:31.005Z,100771.06
2017-05-07T17:01:57.467Z,100768.04
2017-05-07T17:04:23.884Z,100777.30
2017-05-07T17:06:56.533Z,100775.58
2017-05-07T17:09:23.186Z,100782.08
2017-05-07T17:11:49.563Z,100772.66
2017-05-07T17:14:15.960Z,100780.44
2017-05-07T17:16:42.345Z,100784.47
2017-05-07T17:19:08.823Z,100783.08
2017-05-07T17:21:35.287Z,100790.06
2017-05-07T17:24:01.696Z,100795.66
2017-05-07T17:26:28.152Z,100794.66
2017-05-07T17:28:54.534Z,100794.97
2017-05-07T17:31:20.862Z,100795.87
2017-05-07T17:33:47.296Z,100796.64
2017-05-07T17:36:14.099Z,100798.86
2017-05-07T17:38:40.523Z,100804.48
2017-05-07T17:41:06.977Z,100797.31
2017-05-07T17:43:33.671Z,100806.83
2017-05-07T17:46:00.028Z,100805.36
2017-05-07T17:48:27.327Z,100804.30
2017-05-07T17:50:53.702Z,100807.00
2017-05-07T17:53:20.149Z,100810.09
2017-05-07T17:55:46.546Z,100808.20
2017-05-07T17:58:13.183Z,100818.11
2017-05-07T18:00:39.995Z,100816.63
2017-05-07T18:03:06.847Z,100826.33
2017-05-07T18:05:34.824Z,100823.73
2017-05-07T18:08:01.322Z,100825.95
2017-05-07T18:10:28.200Z,100817.17
2017-05-07T18:12:55.686Z,100825.47
2017-05-07T18:15:22.482Z,100827.41
2017-05-07T18:17:48.987Z,100832.88
2017-05-07T18:20:16.619Z,100836.03
2017-05-07T18:22:43.079Z,100836.81
2017-05-07T18:25:09.533Z,100841.72
2017-05-07T18:27:35.957Z,100841.35
2017-05-07T18:30:02.441Z,100837.91
2017-05-07T18:32:29.043Z,100843.48
2017-05-07T18:34:55.499Z,100845.09
2017-05-07T18:37:21.866Z,100847.70
2017-05-07T18:39:48.249Z,100844.78
2017-05-07T18:42:14.813Z,100846.12
2017-05-07T18:44:42.244Z,100848.57
2017-05-07T18:47:09.516Z,100849.61
2017-05-07T18:49:37.251Z,100855.05
2017-05-07T18:52:04.000Z,100856.88
2017-05-07T18:54:30.603Z,100855.27
2017-05-07T18:56:58.199Z,100855.94
2017-05-07T18:59:24.644Z,100856.91
2017-05-07T19:01:51.112Z,100859.92
2017-05-07T19:04:18.047Z,100857.16
2017-05-07T19:06:44.450Z,100861.44
2017-05-07T19:09:11.274Z,100862.61
2017-05-07T19:11:38.300Z,100867.91
2017-05-07T19:14:05.903Z,100865.28
2017-05-07T19:16:32.819Z,100872.34
2017-05-07T19:18:59.363Z,100874.80
2017-05-07T19:21:26.683Z,100882.71
2017-05-07T19:23:53.635Z,100873.74
2017-05-07T19:26:20.780Z,100880.00
2017-05-07T19:28:47.253Z,100888.52
2017-05-07T19:31:14.392Z,100883.50
2017-05-07T19:33:42.132Z,100887.39
2017-05-07T19:36:10.278Z,100887.23
2017-05-07T19:38:37.622Z,100894.11
2017-05-07T19:41:05.298Z,100894.61
2017-05-07T19:43:32.036Z,100897.61
2017-05-07T19:45:58.627Z,100903.38
2017-05-07T19:48:25.806Z,100907.33
2017-05-07T19:50:52.940Z,100907.18
2017-05-07T19:53:19.980Z,100908.67
2017-05-07T19:55:46.607Z,100918.50
2017-05-07T19:58:13.203Z,100912.55
2017-05-07T20:00:39.930Z,100921.16
2017-05-07T20:03:07.712Z,100934.20
2017-05-07T20:05:34.767Z,100922.03
2017-05-07T20:08:02.022Z,100934.20
2017-05-07T20:10:28.605Z,100937.59
2017-05-07T20:12:56.401Z,100937.19
2017-05-07T20:15:23.943Z,100932.17
2017-05-07T20:17:50.739Z,100942.22
2017-05-07T20:20:17.801Z,100940.23
2017-05-07T20:22:44.326Z,100938.76
2017-05-07T20:25:11.283Z,100945.52
2017-05-07T20:27:38.476Z,100944.81
2017-05-07T20:30:05.608Z,100949.94
2017-05-07T20:32:32.034Z,100956.83
2017-05-07T20:34:58.467Z,100953.08
2017-05-07T20:37:24.808Z,100950.69
2017-05-07T20:39:51.798Z,100955.58
2017-05-07T20:42:18.130Z,100957.91
2017-05-07T20:44:44.560Z,100953.31
2017-05-07T20:47:11.124Z,100963.23
2017-05-07T20:49:37.490Z,100958.20
2017-05-07T20:52:03.908Z,100957.00
2017-05-07T20:54:30.267Z,100960.18
2017-05-07T20:56:56.615Z,100956.22
2017-05-07T20:59:22.939Z,100965.89
2017-05-07T21:01:49.289Z,100966.14
2017-05-07T21:04:15.613Z,100968.33
2017-05-07T21:06:41.982Z,100963.48
2017-05-07T21:09:08.309Z,100969.52
2017-05-07T21:11:34.627Z,100970.39
2017-05-07T21:14:00.918Z,100971.68
2017-05-07T21:16:27.291Z,100974.34
2017-05-07T21:18:53.625Z,100973.74
2017-05-07T21:21:19.934Z,100975.78
2017-05-07T21:23:46.247Z,100979.81
2017-05-07T21:26:12.570Z,100985.89
2017-05-07T21:28:38.934Z,100977.98
2017-05-07T21:31:05.287Z,100981.63
2017-05-07T21:33:31.634Z,100977.62
2017-05-07T21:35:58.023Z,100981.11
2017-05-07T21:38:24.379Z,100977.91
2017-05-07T21:40:50.730Z,100981.99
2017-05-07T21:43:17.053Z,100982.38
2017-05-07T21:45:43.380Z,100989.60
2017-05-07T21:48:09.722Z,100986.47
2017-05-07T21:50:36.074Z,100992.69
2017-05-07T21:53:02.408Z,100987.01
2017-05-07T21:55:28.740Z,100986.24
2017-05-07T21:57:55.051Z,100989.89
2017-05-07T22:00:21.372Z,100998.03
2017-05-07T22:02:47.736Z,100998.16
2017-05-07T22:05:14.088Z,100997.41
2017-05-07T22:07:40.438Z,101000.52
2017-05-07T22:10:06.795Z,101000.16
2017-05-07T22:12:33.358Z,101002.86
2017-05-07T22:14:59.720Z,101005.23
2017-05-07T22:17:26.041Z,101008.75
2017-05-07T22:19:52.418Z,101008.22
2017-05-07T22:22:18.811Z,101004.81
2017-05-07T22:24:45.198Z,101009.09
2017-05-07T22:27:11.532Z,101013.45
2017-05-07T22:29:37.877Z,101016.86
2017-05-07T22:32:04.540Z,101016.95
2017-05-07T22:34:30.885Z,101010.37
2017-05-07T22:36:57.236Z,101016.84
2017-05-07T22:39:23.613Z,101020.46
2017-05-07T22:41:49.980Z,101029.75
2017-05-07T22:44:16.324Z,101020.59
2017-05-07T22:46:42.701Z,101027.45
2017-05-07T22:49:09.324Z,101031.61
2017-05-07T22:51:36.032Z,101031.94
2017-05-07T22:54:02.445Z,101032.95
2017-05-07T22:56:29.572Z,101037.28
2017-05-07T22:58:55.962Z,101039.39
2017-05-07T23:01:23.727Z,101043.55
2017-05-07T23:03:50.291Z,101042.72
2017-05-07T23:06:16.703Z,101042.13
2017-05-07T23:08:43.049Z,101044.71
2017-05-07T23:11:10.229Z,101055.16
2017-05-07T23:13:37.364Z,101055.53
2017-05-07T23:16:04.684Z,101049.34
2017-05-07T23:18:31.833Z,101057.92
2017-05-07T23:20:58.840Z,101056.19
2017-05-07T23:23:25.305Z,101057.50
2017-05-07T23:25:51.666Z,101061.45
2017-05-07T23:28:17.991Z,101074.01
2017-05-07T23:30:44.318Z,101072.86
2017-05-07T23:33:10.644Z,101077.75
2017-05-07T23:35:37.379Z,101077.18
2017-05-07T23:38:03.720Z,101082.15
2017-05-07T23:40:30.173Z,101082.62
2017-05-07T23:42:56.562Z,101077.27
2017-05-07T23:45:22.893Z,101082.25
2017-05-07T23:47:49.283Z,101086.39
2017-05-07T23:50:15.776Z,101083.42
2017-05-07T23:52:42.119Z,101096.62
2017-05-07T23:55:08.446Z,101092.44
2017-05-07T23:57:34.762Z,101088.86
